createdAt,value
2017-11-08T00:01:10.554Z,6.10
2017-11-08T00:03:38.086Z,6.10
2017-11-08T00:06:06.405Z,6.10
2017-11-08T00:08:33.934Z,6.10
2017-11-08T00:11:01.490Z,6.10
2017-11-08T00:13:29.041Z,6.10
2017-11-08T00:15:59.323Z,6.10
2017-11-08T00:18:26.877Z,6.10
2017-11-08T00:20:57.262Z,6.20
2017-11-08T00:23:26.749Z,6.10
2017-11-08T00:25:55.072Z,6.10
2017-11-08T00:28:22.613Z,6.00
2017-11-08T00:30:50.153Z,6.00
2017-11-08T00:33:18.484Z,6.10
2017-11-08T00:35:46.010Z,6.10
2017-11-08T00:38:13.565Z,6.20
2017-11-08T00:40:41.115Z,6.20
2017-11-08T00:43:08.674Z,6.20
2017-11-08T00:45:36.210Z,6.20
2017-11-08T00:48:03.769Z,6.10
2017-11-08T00:50:32.109Z,6.10
2017-11-08T00:53:02.160Z,6.10
2017-11-08T00:55:29.698Z,6.00
2017-11-08T00:58:01.161Z,6.00
2017-11-08T01:00:28.697Z,6.00
2017-11-08T01:02:56.251Z,6.00
2017-11-08T01:05:23.785Z,6.00
2017-11-08T01:07:51.314Z,6.00
2017-11-08T01:10:19.621Z,6.00
2017-11-08T01:12:47.173Z,6.00
2017-11-08T01:15:14.717Z,5.90
2017-11-08T01:17:43.020Z,6.00
2017-11-08T01:20:10.570Z,6.00
2017-11-08T01:22:38.100Z,6.10
2017-11-08T01:25:06.419Z,6.00
2017-11-08T01:27:33.954Z,6.00
2017-11-08T01:30:02.277Z,5.90
2017-11-08T01:32:29.826Z,5.90
2017-11-08T01:34:57.479Z,5.90
2017-11-08T01:37:36.689Z,6.00
2017-11-08T01:40:11.013Z,6.00
2017-11-08T01:42:38.563Z,5.90
2017-11-08T01:45:08.045Z,5.90
2017-11-08T01:47:36.356Z,5.90
2017-11-08T01:50:03.936Z,5.90
2017-11-08T01:52:31.502Z,6.00
2017-11-08T01:54:59.036Z,6.10
2017-11-08T01:57:26.571Z,6.00
2017-11-08T01:59:54.921Z,5.90
2017-11-08T02:02:22.470Z,5.90
2017-11-08T02:04:50.021Z,6.00
2017-11-08T02:07:17.593Z,6.00
2017-11-08T02:09:45.119Z,6.00
2017-11-08T02:12:12.692Z,6.00
2017-11-08T02:14:40.287Z,6.00
2017-11-08T02:17:08.617Z,5.90
2017-11-08T02:19:36.144Z,5.90
2017-11-08T02:22:04.465Z,5.90
2017-11-08T02:24:31.992Z,5.90
2017-11-08T02:27:06.049Z,6.00
2017-11-08T02:29:33.654Z,5.90
2017-11-08T02:32:01.983Z,5.90
2017-11-08T02:34:29.513Z,5.90
2017-11-08T02:36:57.059Z,6.00
2017-11-08T02:39:25.356Z,6.00
2017-11-08T02:41:52.912Z,6.00
2017-11-08T02:44:20.472Z,6.00
2017-11-08T02:46:50.917Z,6.00
2017-11-08T02:49:18.470Z,6.00
2017-11-08T02:51:46.020Z,6.00
2017-11-08T02:54:14.449Z,6.00
2017-11-08T02:56:42.014Z,6.00
2017-11-08T02:59:09.578Z,6.00
2017-11-08T03:01:37.111Z,5.90
2017-11-08T03:04:07.638Z,5.90
2017-11-08T03:06:35.158Z,5.90
2017-11-08T03:09:03.459Z,5.90
2017-11-08T03:11:31.016Z,5.80
2017-11-08T03:13:58.538Z,5.90
2017-11-08T03:16:26.856Z,6.00
2017-11-08T03:18:54.418Z,5.90
2017-11-08T03:21:21.953Z,5.90
2017-11-08T03:23:49.498Z,5.90
2017-11-08T03:26:17.812Z,5.90
2017-11-08T03:28:45.345Z,5.90
2017-11-08T03:31:13.655Z,5.90
2017-11-08T03:33:41.197Z,5.90
2017-11-08T03:36:08.757Z,6.00
2017-11-08T03:38:36.298Z,6.00
2017-11-08T03:41:04.710Z,6.00
2017-11-08T03:43:32.268Z,5.90
2017-11-08T03:45:59.821Z,5.90
2017-11-08T03:48:27.349Z,5.80
2017-11-08T03:50:55.650Z,5.80
2017-11-08T03:53:23.197Z,5.80
2017-11-08T03:55:51.480Z,5.90
2017-11-08T03:58:19.026Z,5.80
2017-11-08T04:00:47.317Z,5.80
2017-11-08T04:03:14.877Z,5.80
2017-11-08T04:05:42.412Z,5.80
2017-11-08T04:08:10.737Z,5.90
2017-11-08T04:10:38.284Z,5.90
2017-11-08T04:13:05.854Z,5.90
2017-11-08T04:15:33.388Z,6.00
2017-11-08T04:18:01.714Z,5.90
2017-11-08T04:20:29.241Z,5.90
2017-11-08T04:22:56.915Z,6.00
2017-11-08T04:25:24.477Z,5.90
2017-11-08T04:27:52.053Z,5.90
2017-11-08T04:30:19.699Z,5.90
2017-11-08T04:32:47.256Z,5.90
2017-11-08T04:35:15.352Z,5.90
2017-11-08T04:37:42.914Z,5.90
2017-11-08T04:40:10.456Z,5.80
2017-11-08T04:42:37.994Z,5.80
2017-11-08T04:45:05.550Z,5.90
2017-11-08T04:47:33.114Z,5.90
2017-11-08T04:50:00.649Z,5.90
2017-11-08T04:52:28.992Z,5.80
2017-11-08T04:54:56.517Z,5.80
2017-11-08T04:57:24.046Z,5.90
2017-11-08T04:59:52.471Z,5.80
2017-11-08T05:02:20.023Z,5.80
2017-11-08T05:04:47.581Z,5.80
2017-11-08T05:07:15.126Z,5.80
2017-11-08T05:09:42.677Z,5.80
2017-11-08T05:12:10.998Z,5.80
2017-11-08T05:14:39.383Z,5.80
2017-11-08T05:17:06.942Z,5.80
2017-11-08T05:19:34.465Z,5.80
2017-11-08T05:22:02.014Z,5.90
2017-11-08T05:24:29.554Z,5.80
2017-11-08T05:26:57.852Z,5.90
2017-11-08T05:29:25.405Z,5.90
2017-11-08T05:31:53.694Z,5.80
2017-11-08T05:34:21.254Z,5.80
2017-11-08T05:36:48.785Z,5.80
2017-11-08T05:39:17.092Z,5.90
2017-11-08T05:41:44.628Z,5.90
2017-11-08T05:44:12.958Z,5.90
2017-11-08T05:46:40.494Z,5.80
2017-11-08T05:49:08.036Z,5.80
2017-11-08T05:51:36.368Z,5.90
2017-11-08T05:54:03.951Z,5.80
2017-11-08T05:56:31.496Z,5.80
2017-11-08T05:58:59.025Z,5.80
2017-11-08T06:01:26.569Z,5.80
2017-11-08T06:03:54.097Z,5.80
2017-11-08T06:06:22.397Z,5.80
2017-11-08T06:08:49.937Z,5.70
2017-11-08T06:11:18.246Z,5.80
2017-11-08T06:13:45.765Z,5.80
2017-11-08T06:16:14.072Z,5.70
2017-11-08T06:18:41.592Z,5.80
2017-11-08T06:21:09.140Z,5.60
2017-11-08T06:23:36.697Z,5.70
2017-11-08T06:26:04.216Z,5.70
2017-11-08T06:28:31.783Z,5.70
2017-11-08T06:30:59.334Z,5.80
2017-11-08T06:33:26.914Z,5.70
2017-11-08T06:35:54.437Z,5.70
2017-11-08T06:38:21.986Z,5.70
2017-11-08T06:40:50.298Z,5.70
2017-11-08T06:43:17.825Z,5.70
2017-11-08T06:45:46.153Z,5.70
2017-11-08T06:48:13.686Z,5.70
2017-11-08T06:50:41.235Z,5.80
2017-11-08T06:53:08.779Z,5.70
2017-11-08T06:55:37.095Z,5.70
2017-11-08T06:58:04.618Z,5.70
2017-11-08T07:00:32.939Z,5.70
2017-11-08T07:03:00.481Z,5.70
2017-11-08T07:05:28.003Z,5.70
2017-11-08T07:07:56.340Z,5.60
2017-11-08T07:10:23.885Z,5.70
2017-11-08T07:12:51.443Z,5.70
2017-11-08T07:15:18.986Z,5.80
2017-11-08T07:17:46.537Z,5.70
2017-11-08T07:20:14.847Z,5.70
2017-11-08T07:22:42.390Z,5.70
2017-11-08T07:25:09.920Z,5.70
2017-11-08T07:27:38.249Z,5.70
2017-11-08T07:30:05.801Z,5.70
2017-11-08T07:32:33.325Z,5.70
2017-11-08T07:35:01.660Z,5.60
2017-11-08T07:37:29.191Z,5.60
2017-11-08T07:39:56.734Z,5.70
2017-11-08T07:42:24.268Z,5.70
2017-11-08T07:44:52.589Z,5.60
2017-11-08T07:47:20.258Z,5.60
2017-11-08T07:49:48.998Z,5.70
2017-11-08T07:52:17.294Z,5.80
2017-11-08T07:54:47.596Z,5.70
2017-11-08T07:57:15.158Z,5.80
2017-11-08T07:59:59.357Z,5.80
2017-11-08T08:02:26.884Z,5.70
2017-11-08T08:04:54.431Z,5.70
2017-11-08T08:07:25.760Z,5.80
2017-11-08T08:09:53.292Z,5.80
2017-11-08T08:12:20.853Z,5.80
2017-11-08T08:14:48.377Z,5.80
2017-11-08T08:17:17.845Z,5.70
2017-11-08T08:19:45.378Z,5.70
2017-11-08T08:22:12.904Z,5.80
2017-11-08T08:24:41.284Z,5.90
2017-11-08T08:27:09.740Z,5.90
2017-11-08T08:29:39.851Z,5.90
2017-11-08T08:32:07.401Z,5.90
2017-11-08T08:34:34.937Z,5.80
2017-11-08T08:37:02.493Z,5.80
2017-11-08T08:39:30.144Z,5.80
2017-11-08T08:41:57.681Z,5.90
2017-11-08T08:44:25.258Z,5.90
2017-11-08T08:46:53.013Z,5.90
2017-11-08T08:49:20.576Z,5.90
2017-11-08T08:51:48.116Z,5.80
2017-11-08T08:54:16.431Z,5.90
2017-11-08T08:56:43.959Z,5.80
2017-11-08T08:59:11.509Z,5.90
2017-11-08T09:01:39.811Z,6.00
2017-11-08T09:04:07.354Z,6.00
2017-11-08T09:06:34.889Z,6.00
2017-11-08T09:09:02.416Z,5.90
2017-11-08T09:11:30.060Z,5.80
2017-11-08T09:13:57.724Z,5.90
2017-11-08T09:16:26.219Z,5.90
2017-11-08T09:18:53.747Z,5.80
2017-11-08T09:21:21.281Z,5.80
2017-11-08T09:23:49.622Z,5.80
2017-11-08T09:26:17.182Z,5.80
2017-11-08T09:28:44.745Z,5.90
2017-11-08T09:31:17.910Z,5.90
2017-11-08T09:33:45.462Z,5.80
2017-11-08T09:36:14.868Z,5.70
2017-11-08T09:38:42.417Z,5.70
2017-11-08T09:41:09.968Z,5.70
2017-11-08T09:43:38.286Z,5.80
2017-11-08T09:46:05.827Z,5.80
2017-11-08T09:48:33.373Z,5.80
2017-11-08T09:51:00.912Z,5.70
2017-11-08T09:53:29.209Z,5.80
2017-11-08T09:55:58.645Z,5.70
2017-11-08T09:58:27.033Z,5.80
2017-11-08T10:00:56.575Z,5.80
2017-11-08T10:03:24.873Z,5.90
2017-11-08T10:05:52.429Z,5.90
2017-11-08T10:08:19.961Z,5.80
2017-11-08T10:10:48.287Z,5.80
2017-11-08T10:13:18.633Z,5.80
2017-11-08T10:15:46.176Z,5.80
2017-11-08T10:18:13.694Z,5.90
2017-11-08T10:20:42.016Z,6.00
2017-11-08T10:23:09.549Z,6.00
2017-11-08T10:25:37.108Z,6.00
2017-11-08T10:28:04.639Z,6.00
2017-11-08T10:30:32.948Z,6.00
2017-11-08T10:33:00.496Z,6.00
2017-11-08T10:35:28.927Z,6.00
2017-11-08T10:37:56.537Z,6.00
2017-11-08T10:40:24.916Z,5.90
2017-11-08T10:42:53.296Z,6.00
2017-11-08T10:45:21.497Z,6.00
2017-11-08T10:47:49.207Z,6.00
2017-11-08T10:50:16.806Z,6.10
2017-11-08T10:52:46.345Z,6.10
2017-11-08T10:55:13.949Z,6.10
2017-11-08T10:57:41.638Z,6.10
2017-11-08T11:00:24.109Z,6.10
2017-11-08T11:15:58.319Z,6.40
2017-11-08T11:18:25.971Z,6.50
2017-11-08T11:20:54.263Z,6.50
2017-11-08T11:23:21.849Z,6.50
2017-11-08T11:25:51.342Z,6.50
2017-11-08T11:28:18.888Z,6.40
2017-11-08T11:30:46.429Z,6.40
2017-11-08T11:33:14.761Z,6.50
2017-11-08T11:35:42.395Z,6.50
2017-11-08T11:38:10.716Z,6.60
2017-11-08T11:40:38.278Z,6.70
2017-11-08T11:43:05.819Z,6.70
2017-11-08T11:45:33.399Z,6.70
2017-11-08T11:48:00.954Z,6.60
2017-11-08T11:50:31.429Z,6.70
2017-11-08T11:52:59.014Z,6.80
2017-11-08T11:55:27.225Z,6.70
2017-11-08T11:57:54.760Z,6.80
2017-11-08T12:00:22.302Z,6.90
2017-11-08T12:02:49.835Z,6.90
2017-11-08T12:05:17.410Z,6.90
2017-11-08T12:07:44.938Z,7.00
2017-11-08T12:10:12.579Z,6.90
2017-11-08T12:12:40.143Z,6.90
2017-11-08T12:15:07.704Z,6.90
2017-11-08T12:17:35.324Z,7.10
2017-11-08T12:20:02.956Z,7.10
2017-11-08T12:22:31.282Z,6.90
2017-11-08T12:24:58.858Z,6.90
2017-11-08T12:27:32.257Z,6.80
2017-11-08T12:29:59.878Z,6.80
2017-11-08T12:32:27.568Z,6.70
2017-11-08T12:34:58.923Z,6.80
2017-11-08T12:37:27.364Z,6.90
2017-11-08T12:39:56.851Z,6.70
2017-11-08T12:42:25.179Z,6.70
2017-11-08T12:44:57.507Z,6.70
2017-11-08T12:47:25.877Z,6.70
2017-11-08T12:49:54.173Z,6.70
2017-11-08T12:52:22.527Z,6.70
2017-11-08T12:54:50.267Z,6.60
2017-11-08T12:57:17.831Z,6.80
2017-11-08T12:59:45.416Z,6.80
2017-11-08T13:02:12.939Z,6.80
2017-11-08T13:04:40.485Z,6.80
2017-11-08T13:07:08.035Z,6.80
2017-11-08T13:09:37.495Z,6.80
2017-11-08T13:12:05.045Z,6.50
2017-11-08T13:14:33.199Z,6.30
2017-11-08T13:17:00.748Z,6.20
2017-11-08T13:19:28.337Z,6.20
2017-11-08T13:21:55.937Z,6.30
2017-11-08T13:24:24.310Z,6.20
2017-11-08T13:26:52.723Z,6.20
2017-11-08T13:29:20.284Z,6.20
2017-11-08T13:31:47.850Z,6.20
2017-11-08T13:34:15.435Z,6.30
2017-11-08T13:36:43.002Z,6.20
2017-11-08T13:39:10.559Z,6.20
2017-11-08T13:41:38.114Z,6.10
2017-11-08T13:44:05.710Z,6.10
2017-11-08T13:46:34.141Z,6.10
2017-11-08T13:49:01.724Z,6.10
2017-11-08T13:51:29.311Z,6.10
2017-11-08T13:53:57.763Z,6.20
2017-11-08T13:56:25.394Z,6.20
2017-11-08T13:58:52.987Z,6.30
2017-11-08T14:01:20.723Z,6.10
2017-11-08T14:03:48.331Z,6.00
2017-11-08T14:06:15.946Z,5.90
2017-11-08T14:08:43.487Z,5.90
2017-11-08T14:11:11.009Z,6.00
2017-11-08T14:13:38.563Z,6.00
2017-11-08T14:16:06.106Z,5.80
2017-11-08T14:18:34.437Z,5.80
2017-11-08T14:21:01.979Z,5.80
2017-11-08T14:23:29.512Z,5.90
2017-11-08T14:25:57.829Z,6.00
2017-11-08T14:28:25.406Z,6.00
2017-11-08T14:30:52.981Z,6.00
2017-11-08T14:33:20.502Z,6.10
2017-11-08T14:35:48.085Z,6.00
2017-11-08T14:38:15.626Z,6.10
2017-11-08T14:40:43.502Z,6.10
2017-11-08T14:43:11.063Z,6.10
2017-11-08T14:45:38.621Z,6.10
2017-11-08T14:48:06.163Z,6.10
2017-11-08T14:50:33.702Z,6.10
2017-11-08T14:53:07.885Z,6.00
2017-11-08T14:55:35.470Z,6.10
2017-11-08T14:58:03.773Z,6.30
2017-11-08T15:00:31.341Z,6.20
2017-11-08T15:02:58.874Z,6.30
2017-11-08T15:05:26.451Z,6.20
2017-11-08T15:07:54.018Z,6.10
2017-11-08T15:10:21.565Z,6.10
2017-11-08T15:12:49.119Z,6.10
2017-11-08T15:15:19.589Z,5.90
2017-11-08T15:17:47.151Z,5.80
2017-11-08T15:20:20.361Z,5.80
2017-11-08T15:22:47.914Z,5.80
2017-11-08T15:25:15.460Z,5.70
2017-11-08T15:27:43.031Z,5.70
2017-11-08T15:30:16.974Z,5.70
2017-11-08T15:32:47.126Z,5.70
2017-11-08T15:35:14.679Z,5.70
2017-11-08T15:37:42.207Z,5.70
2017-11-08T15:40:10.519Z,5.70
2017-11-08T15:42:38.047Z,5.80
2017-11-08T15:45:06.401Z,5.80
2017-11-08T15:47:37.961Z,5.80
2017-11-08T15:50:05.601Z,5.90
2017-11-08T15:52:33.177Z,5.90
2017-11-08T15:55:00.756Z,5.90
2017-11-08T15:57:29.061Z,5.90
2017-11-08T15:59:56.661Z,5.90
2017-11-08T16:02:24.210Z,5.90
2017-11-08T16:04:51.746Z,5.90
2017-11-08T16:07:19.299Z,6.00
2017-11-08T16:09:46.962Z,6.00
2017-11-08T16:12:14.601Z,6.00
2017-11-08T16:14:42.985Z,6.00
2017-11-08T16:17:12.288Z,6.00
2017-11-08T16:19:40.666Z,6.00
2017-11-08T16:22:09.093Z,6.00
2017-11-08T16:24:36.718Z,6.00
2017-11-08T16:27:05.069Z,5.90
2017-11-08T16:29:32.718Z,5.90
2017-11-08T16:32:00.250Z,5.90
2017-11-08T16:34:27.828Z,5.90
2017-11-08T16:36:55.350Z,5.90
2017-11-08T16:39:22.962Z,5.90
2017-11-08T16:41:50.545Z,5.80
2017-11-08T16:44:18.951Z,6.10
2017-11-08T16:46:46.486Z,6.00
2017-11-08T16:49:14.822Z,6.10
2017-11-08T16:51:42.401Z,6.10
2017-11-08T16:54:10.016Z,5.90
2017-11-08T16:56:37.572Z,5.80
2017-11-08T16:59:05.107Z,5.60
2017-11-08T17:01:33.428Z,5.70
2017-11-08T17:04:01.046Z,5.60
2017-11-08T17:06:29.408Z,5.80
2017-11-08T17:08:56.936Z,5.80
2017-11-08T17:11:24.550Z,5.80
2017-11-08T17:13:52.853Z,6.10
2017-11-08T17:16:20.439Z,6.10
2017-11-08T17:18:48.007Z,6.00
2017-11-08T17:21:15.656Z,6.00
2017-11-08T17:23:43.212Z,6.10
2017-11-08T17:26:10.788Z,6.00
2017-11-08T17:28:38.341Z,5.90
2017-11-08T17:31:05.922Z,5.90
2017-11-08T17:33:33.907Z,6.00
2017-11-08T17:36:02.220Z,5.90
2017-11-08T17:38:29.863Z,5.90
2017-11-08T17:40:57.536Z,6.00
2017-11-08T17:43:25.159Z,5.90
2017-11-08T17:45:52.767Z,6.10
2017-11-08T17:48:20.332Z,6.10
2017-11-08T17:50:47.870Z,6.00
2017-11-08T17:53:15.517Z,6.00
2017-11-08T17:55:43.840Z,5.90
2017-11-08T17:58:11.369Z,5.90
2017-11-08T18:00:39.688Z,5.80
2017-11-08T18:03:07.214Z,5.80
2017-11-08T18:05:34.762Z,5.70
2017-11-08T18:08:02.325Z,5.70
2017-11-08T18:10:29.902Z,5.70
2017-11-08T18:12:57.435Z,5.70
2017-11-08T18:15:25.827Z,5.80
2017-11-08T18:17:53.435Z,5.80
2017-11-08T18:20:20.974Z,5.80
2017-11-08T18:22:48.531Z,5.90
2017-11-08T18:25:16.084Z,6.00
2017-11-08T18:27:43.635Z,5.90
2017-11-08T18:30:11.219Z,6.00
2017-11-08T18:32:38.949Z,5.90
2017-11-08T18:35:06.543Z,5.80
2017-11-08T18:37:34.132Z,5.80
2017-11-08T18:40:01.682Z,5.70
2017-11-08T18:42:29.234Z,5.70
2017-11-08T18:44:56.789Z,5.70
2017-11-08T18:47:24.356Z,5.70
2017-11-08T18:49:51.922Z,5.70
2017-11-08T18:52:19.483Z,5.80
2017-11-08T18:54:47.075Z,5.80
2017-11-08T18:57:15.420Z,5.80
2017-11-08T18:59:42.982Z,5.80
2017-11-08T19:02:10.510Z,5.80
2017-11-08T19:04:38.078Z,5.70
2017-11-08T19:07:05.643Z,5.90
2017-11-08T19:09:33.199Z,5.90
2017-11-08T19:12:00.768Z,5.90
2017-11-08T19:14:28.342Z,5.90
2017-11-08T19:16:55.920Z,5.90
2017-11-08T19:19:23.478Z,5.90
2017-11-08T19:21:51.053Z,5.90
2017-11-08T19:24:19.375Z,5.70
2017-11-08T19:26:46.948Z,5.70
2017-11-08T19:29:14.519Z,5.70
2017-11-08T19:31:42.050Z,5.70
2017-11-08T19:34:09.623Z,5.70
2017-11-08T19:36:37.190Z,5.70
2017-11-08T19:39:04.743Z,5.70
2017-11-08T19:41:32.279Z,5.80
2017-11-08T19:43:59.853Z,5.70
2017-11-08T19:46:27.409Z,5.70
2017-11-08T19:48:54.980Z,5.70
2017-11-08T19:51:22.542Z,5.70
2017-11-08T19:53:50.095Z,5.90
2017-11-08T19:56:17.682Z,6.00
2017-11-08T19:58:45.236Z,5.90
2017-11-08T20:01:12.808Z,5.80
2017-11-08T20:03:40.373Z,5.80
2017-11-08T20:06:07.992Z,5.90
2017-11-08T20:08:35.524Z,5.90
2017-11-08T20:11:03.090Z,5.80
2017-11-08T20:13:30.624Z,5.80
2017-11-08T20:15:58.952Z,5.80
2017-11-08T20:18:27.272Z,5.70
2017-11-08T20:20:54.817Z,5.60
2017-11-08T20:23:23.267Z,5.70
2017-11-08T20:25:51.586Z,5.80
2017-11-08T20:28:19.145Z,5.80
2017-11-08T20:30:46.689Z,5.80
2017-11-08T20:33:14.247Z,5.80
2017-11-08T20:35:41.802Z,5.70
2017-11-08T20:38:09.366Z,5.70
2017-11-08T20:40:36.906Z,5.70
2017-11-08T20:43:05.790Z,5.60
2017-11-08T20:45:34.097Z,5.70
2017-11-08T20:48:01.698Z,5.70
2017-11-08T20:50:29.332Z,5.70
2017-11-08T20:52:56.869Z,5.80
2017-11-08T20:55:24.409Z,5.80
2017-11-08T20:57:51.957Z,5.90
2017-11-08T21:00:19.497Z,5.90
2017-11-08T21:02:47.822Z,6.00
2017-11-08T21:05:15.370Z,6.00
2017-11-08T21:07:42.908Z,5.90
2017-11-08T21:10:10.477Z,6.00
2017-11-08T21:12:38.046Z,5.90
2017-11-08T21:15:05.621Z,5.80
2017-11-08T21:17:33.179Z,5.80
2017-11-08T21:20:00.743Z,5.80
2017-11-08T21:22:28.315Z,5.80
2017-11-08T21:24:55.882Z,5.90
2017-11-08T21:27:23.425Z,5.80
2017-11-08T21:29:50.997Z,5.80
2017-11-08T21:32:18.568Z,5.70
2017-11-08T21:34:46.106Z,5.70
2017-11-08T21:37:13.682Z,5.60
2017-11-08T21:39:41.233Z,5.70
2017-11-08T21:42:09.163Z,5.90
2017-11-08T21:44:36.710Z,5.80
2017-11-08T21:47:04.256Z,5.90
2017-11-08T21:49:32.673Z,5.90
2017-11-08T21:52:00.251Z,5.90
2017-11-08T21:54:27.902Z,5.80
2017-11-08T21:56:55.470Z,5.80
2017-11-08T21:59:23.326Z,5.80
2017-11-08T22:01:50.905Z,5.80
2017-11-08T22:04:18.480Z,5.80
2017-11-08T22:06:46.221Z,5.90
2017-11-08T22:09:13.789Z,5.90
2017-11-08T22:11:41.640Z,5.80
2017-11-08T22:14:09.208Z,5.70
2017-11-08T22:16:36.742Z,5.80
2017-11-08T22:19:04.319Z,5.90
2017-11-08T22:21:31.892Z,5.80
2017-11-08T22:23:59.445Z,5.70
2017-11-08T22:26:27.000Z,5.70
2017-11-08T22:28:54.543Z,5.60
2017-11-08T22:31:22.107Z,5.70
2017-11-08T22:33:49.686Z,5.70
2017-11-08T22:36:17.255Z,5.60
2017-11-08T22:38:45.556Z,5.60
2017-11-08T22:41:13.175Z,5.60
2017-11-08T22:43:40.719Z,5.40
2017-11-08T22:46:08.271Z,5.50
2017-11-08T22:48:35.819Z,5.50
2017-11-08T22:51:04.118Z,5.60
2017-11-08T22:53:31.729Z,5.60
2017-11-08T22:55:59.279Z,5.60
2017-11-08T22:58:26.840Z,5.60
2017-11-08T23:00:54.368Z,5.60
2017-11-08T23:03:21.929Z,5.50
2017-11-08T23:05:49.525Z,5.50
2017-11-08T23:08:17.095Z,5.50
2017-11-08T23:10:44.653Z,5.50
2017-11-08T23:13:12.213Z,5.50
2017-11-08T23:15:39.741Z,5.40
2017-11-08T23:18:07.313Z,5.40
2017-11-08T23:20:34.890Z,5.40
2017-11-08T23:23:02.442Z,5.40
2017-11-08T23:25:30.041Z,5.40
2017-11-08T23:27:57.579Z,5.40
2017-11-08T23:30:25.935Z,5.60
2017-11-08T23:32:53.477Z,5.60
2017-11-08T23:35:21.036Z,5.70
2017-11-08T23:37:48.595Z,5.50
2017-11-08T23:40:16.140Z,5.40
2017-11-08T23:42:43.705Z,5.30
2017-11-08T23:45:11.262Z,5.40
2017-11-08T23:47:38.813Z,5.40
2017-11-08T23:50:06.338Z,5.30
2017-11-08T23:52:34.667Z,5.40
2017-11-08T23:55:02.805Z,5.30
2017-11-08T23:57:31.131Z,5.40
